Time;durP1;ratioP1;P1;durP2;ratioP2;P2;SDS_P1;SDS_P2;PMS_P1;PMS_P2;Temp;Humidity;BMP_temperature;BMP_pressure;BME280_temperature;BME280_humidity;BME280_pressure;Samples;Min_cycle;Max_cycle;Signal;HPM_P1;HPM_P2
2022/11/30 00:05:17;;;;;;;17.15;10.52;;;;;;;20.47;55.37;100971.88;20652279;28;20139;-76
2022/11/30 00:15:17;;;;;;;14.55;10.30;;;;;;;20.45;55.68;100963.22;20648254;28;20050;-77
2022/11/30 00:25:18;;;;;;;14.95;10.43;;;;;;;20.42;56.02;100963.41;20655114;28;20050;-77
2022/11/30 00:35:18;;;;;;;14.90;9.93;;;;;;;20.39;55.89;100951.31;20662021;28;20088;-77
2022/11/30 00:45:18;;;;;;;14.45;9.82;;;;;;;20.37;55.86;100965.50;20655515;28;20050;-76
2022/11/30 00:55:19;;;;;;;12.98;9.60;;;;;;;20.35;55.98;100968.22;20645589;28;20049;-76
2022/11/30 01:05:19;;;;;;;13.05;9.75;;;;;;;20.36;55.97;100961.19;20641371;28;20077;-76
2022/11/30 01:15:20;;;;;;;13.50;9.43;;;;;;;20.30;56.12;100952.75;20646199;28;20076;-76
2022/11/30 01:25:20;;;;;;;13.98;9.05;;;;;;;20.33;55.55;100964.03;20653655;28;20046;-77
2022/11/30 01:35:21;;;;;;;13.45;9.25;;;;;;;20.30;56.13;100965.06;20647378;28;20437;-78
2022/11/30 01:45:21;;;;;;;14.38;8.77;;;;;;;20.33;55.86;100958.75;20647724;28;20038;-77
2022/11/30 01:55:36;;;;;;;10.75;8.25;;;;;;;20.31;55.97;100946.53;20655451;28;20049;-78
2022/11/30 02:05:38;;;;;;;11.88;8.25;;;;;;;20.31;55.53;100945.69;20637909;28;20038;-76
2022/11/30 02:15:53;;;;;;;10.43;7.83;;;;;;;20.29;55.40;100944.97;20657353;28;20042;-77
2022/11/30 02:26:24;;;;;;;11.15;8.18;;;;;;;20.29;55.68;100947.59;20645535;28;20476;-76
2022/11/30 02:36:27;;;;;;;10.75;7.78;;;;;;;20.27;55.75;100936.31;20653429;28;20046;-76
2022/11/30 02:46:39;;;;;;;10.30;7.70;;;;;;;20.31;55.82;100927.28;20665352;28;20042;-77
2022/11/30 02:56:39;;;;;;;10.70;7.93;;;;;;;20.27;55.33;100918.75;20667568;28;20046;-77
2022/11/30 03:06:39;;;;;;;10.77;7.43;;;;;;;20.29;55.48;100934.44;20664004;28;20523;-77
2022/11/30 03:16:40;;;;;;;11.52;7.50;;;;;;;20.28;55.43;100923.06;20660291;28;20046;-77
2022/11/30 03:26:40;;;;;;;9.40;7.30;;;;;;;20.28;55.51;100924.88;20668800;28;20050;-77
2022/11/30 03:36:42;;;;;;;10.13;6.82;;;;;;;20.30;55.75;100944.84;20660583;28;20633;-76
2022/11/30 03:46:42;;;;;;;8.48;6.65;;;;;;;20.28;55.60;100951.16;20661790;28;20528;-77
2022/11/30 03:56:42;;;;;;;8.98;6.72;;;;;;;20.26;55.36;100947.78;20653571;28;20046;-78
2022/11/30 04:06:43;;;;;;;8.98;6.53;;;;;;;20.27;55.15;100945.03;20659718;28;20061;-77
2022/11/30 04:16:43;;;;;;;9.20;6.70;;;;;;;20.28;55.36;100935.38;20657701;28;20042;-78
2022/11/30 04:26:44;;;;;;;7.90;5.95;;;;;;;20.28;55.07;100938.84;20662240;28;20100;-77
2022/11/30 04:36:49;;;;;;;8.32;6.30;;;;;;;20.28;54.88;100946.72;20666728;28;20046;-79
2022/11/30 04:46:49;;;;;;;7.78;6.05;;;;;;;20.28;55.45;100936.22;20658882;28;20100;-79
2022/11/30 04:56:50;;;;;;;7.18;5.45;;;;;;;20.31;55.12;100943.06;20634111;28;20055;-78
2022/11/30 05:06:51;;;;;;;8.32;5.63;;;;;;;20.36;55.73;100934.88;20640664;28;20109;-81
2022/11/30 05:16:51;;;;;;;9.15;6.60;;;;;;;20.42;56.67;100943.22;20654948;28;20049;-80
2022/11/30 05:26:52;;;;;;;9.40;6.18;;;;;;;20.51;56.24;100956.69;20629622;28;20038;-81
2022/11/30 05:36:52;;;;;;;23.98;7.68;;;;;;;20.60;56.37;100964.00;20646841;28;20046;-86
2022/11/30 05:46:53;;;;;;;17.98;7.40;;;;;;;20.68;55.44;100955.59;20645712;28;20133;-79
2022/11/30 05:56:53;;;;;;;25.40;8.85;;;;;;;20.73;55.26;100959.63;20655869;28;20042;-81
2022/11/30 06:06:56;;;;;;;23.73;8.65;;;;;;;20.76;53.69;100959.44;20657675;28;20057;-84
2022/11/30 06:16:57;;;;;;;19.70;8.25;;;;;;;20.76;52.08;100955.97;20659650;28;20133;-80
2022/11/30 06:26:57;;;;;;;17.88;7.35;;;;;;;20.83;52.90;100974.84;20670015;28;20046;-80
2022/11/30 06:36:57;;;;;;;19.77;7.32;;;;;;;20.89;53.65;100985.78;20658577;28;20038;-80
2022/11/30 06:46:58;;;;;;;18.20;7.20;;;;;;;20.97;54.24;100995.81;20670239;28;20046;-82
2022/11/30 06:56:58;;;;;;;13.73;6.50;;;;;;;21.00;54.04;100992.13;20654610;28;20041;-82
2022/11/30 07:06:59;;;;;;;14.27;6.50;;;;;;;21.10;54.57;100991.41;20629682;28;20066;-79
2022/11/30 07:17:03;;;;;;;14.98;6.45;;;;;;;21.14;53.82;100989.41;20639300;28;20038;-78
2022/11/30 07:27:04;;;;;;;17.83;6.30;;;;;;;21.20;53.78;100986.38;20665819;28;20037;-81
2022/11/30 07:37:06;;;;;;;15.32;5.95;;;;;;;21.23;53.36;100983.50;20679749;28;20050;-84
2022/11/30 07:47:06;;;;;;;12.30;5.70;;;;;;;21.31;53.22;100982.13;20674914;28;20041;-80
2022/11/30 07:57:07;;;;;;;11.45;5.53;;;;;;;21.35;53.27;100983.59;20673634;28;20050;-83
2022/11/30 08:07:09;;;;;;;12.68;5.30;;;;;;;21.37;52.91;100977.31;20665046;28;20046;-83
2022/11/30 08:17:09;;;;;;;8.57;4.73;;;;;;;21.40;52.91;100978.88;20669633;28;20046;-82
2022/11/30 08:27:10;;;;;;;8.63;4.85;;;;;;;21.42;52.48;100974.34;20678774;28;20045;-82
2022/11/30 08:37:11;;;;;;;7.63;4.90;;;;;;;21.45;52.53;100971.50;20669199;28;20369;-83
2022/11/30 08:47:12;;;;;;;7.93;4.78;;;;;;;21.44;52.52;100968.00;20655893;28;21689;-82
2022/11/30 08:57:14;;;;;;;11.52;5.13;;;;;;;21.44;52.27;100965.38;20668237;28;20038;-84
2022/11/30 09:07:14;;;;;;;8.17;4.57;;;;;;;21.53;52.10;100973.59;20647580;28;20079;-83
2022/11/30 09:17:14;;;;;;;9.60;4.50;;;;;;;21.50;52.16;100963.28;20651167;28;20039;-84
2022/11/30 09:27:15;;;;;;;10.20;5.70;;;;;;;21.49;51.75;100965.06;20658431;28;20037;-87
2022/11/30 09:37:15;;;;;;;9.23;6.22;;;;;;;21.49;51.77;100965.06;20656079;28;21025;-85
2022/11/30 09:47:26;;;;;;;16.30;10.85;;;;;;;21.48;51.56;100960.72;20654205;28;20045;-84
2022/11/30 09:57:26;;;;;;;13.45;8.77;;;;;;;21.42;51.55;100959.38;20661832;28;20035;-84
2022/11/30 10:08:03;;;;;;;17.67;11.32;;;;;;;21.33;51.59;100951.28;20645816;28;20056;-80
2022/11/30 10:18:27;;;;;;;15.13;10.30;;;;;;;21.26;51.48;100954.34;20663918;28;20054;-84
2022/11/30 10:28:52;;;;;;;13.85;9.93;;;;;;;21.22;51.94;100947.56;20650265;28;20108;-84
2022/11/30 10:38:59;;;;;;;14.55;10.52;;;;;;;21.18;51.53;100921.56;20664997;28;20042;-86
2022/11/30 10:49:11;;;;;;;11.05;7.80;;;;;;;21.16;51.81;100929.56;20665902;28;20042;-83
2022/11/30 10:59:40;;;;;;;11.90;8.47;;;;;;;21.15;51.75;100929.69;20645907;28;22094;-80
2022/11/30 11:09:48;;;;;;;12.07;8.40;;;;;;;21.16;51.48;100915.56;20670596;28;20500;-82
2022/11/30 11:19:50;;;;;;;13.88;10.23;;;;;;;21.15;51.13;100911.25;20662833;28;20493;-82
2022/11/30 11:30:01;;;;;;;12.53;7.47;;;;;;;21.17;51.16;100904.09;20657649;28;20038;-83
2022/11/30 11:40:16;;;;;;;12.13;7.57;;;;;;;21.14;50.83;100910.41;20641677;28;20101;-81
2022/11/30 11:50:24;;;;;;;10.32;7.22;;;;;;;21.15;51.10;100919.97;20651644;28;20045;-81
2022/11/30 12:00:25;;;;;;;11.15;6.78;;;;;;;21.26;51.63;100912.19;20657164;28;20050;-81
2022/11/30 12:10:40;;;;;;;12.23;7.82;;;;;;;21.42;54.14;100913.75;20671198;28;20053;-82
2022/11/30 12:21:00;;;;;;;13.07;8.40;;;;;;;21.52;57.10;100904.25;20675722;28;20078;-86
2022/11/30 12:31:16;;;;;;;12.70;8.57;;;;;;;21.54;57.02;100906.78;20681850;28;20132;-85
2022/11/30 12:41:30;;;;;;;11.07;7.72;;;;;;;21.54;56.62;100904.13;20685373;28;20129;-85
2022/11/30 12:51:50;;;;;;;12.65;7.18;;;;;;;21.55;55.60;100890.84;20680245;28;20042;-84
2022/11/30 13:02:17;;;;;;;9.38;6.75;;;;;;;21.52;54.90;100901.63;20668095;28;20042;-84
2022/11/30 13:12:35;;;;;;;11.32;6.75;;;;;;;21.49;54.24;100888.66;20639124;28;20061;-84
2022/11/30 13:22:58;;;;;;;8.98;6.72;;;;;;;21.44;54.27;100891.59;20653322;28;20046;-82
2022/11/30 13:33:18;;;;;;;;;;;;;;;21.40;53.90;100890.16;20665067;28;20046;-82
2022/11/30 13:43:21;;;;;;;15.02;7.43;;;;;;;21.39;52.43;100896.34;20664541;28;19921;-84
2022/11/30 13:53:34;;;;;;;13.82;6.57;;;;;;;21.40;52.09;100899.84;20657429;28;20038;-83
2022/11/30 14:03:37;;;;;;;10.15;6.00;;;;;;;21.42;52.41;100897.94;20658767;28;20034;-81
2022/11/30 14:13:37;;;;;;;11.05;5.95;;;;;;;21.44;52.71;100902.13;20673888;28;20077;-80
2022/11/30 14:23:37;;;;;;;12.77;5.88;;;;;;;21.44;53.18;100903.94;20621263;28;20046;-82
2022/11/30 14:33:48;;;;;;;9.05;6.43;;;;;;;21.30;52.71;100893.53;20610938;28;20065;-80
2022/11/30 14:44:04;;;;;;;11.07;5.88;;;;;;;21.25;51.99;100888.56;20664269;28;20050;-78
2022/11/30 14:54:16;;;;;;;9.75;6.47;;;;;;;21.17;52.09;100890.94;20660915;28;20480;-78
2022/11/30 15:04:17;;;;;;;10.10;6.07;;;;;;;21.23;52.30;100893.13;20629522;28;20037;-81
2022/11/30 15:14:18;;;;;;;13.25;6.20;;;;;;;21.28;51.63;100881.31;20677746;28;20108;-80
2022/11/30 15:24:19;;;;;;;9.75;5.70;;;;;;;21.32;52.25;100886.38;20650404;28;20061;-80
2022/11/30 15:34:35;;;;;;;9.13;6.25;;;;;;;21.25;51.90;100875.41;20650935;28;20041;-77
2022/11/30 15:44:36;;;;;;;13.15;5.82;;;;;;;21.24;52.46;100886.91;20631203;28;20056;-80
2022/11/30 15:54:52;;;;;;;13.50;7.32;;;;;;;21.21;53.24;100890.56;20616998;28;20129;-82
2022/11/30 16:04:56;;;;;;;10.20;5.97;;;;;;;21.10;53.07;100882.59;20607275;28;20057;-78
2022/11/30 16:14:56;;;;;;;10.88;6.65;;;;;;;21.17;53.69;100870.69;20661205;28;20053;-81
2022/11/30 16:24:58;;;;;;;10.65;7.38;;;;;;;21.26;55.04;100885.84;20637342;28;20057;-81
2022/11/30 16:34:58;;;;;;;10.60;7.68;;;;;;;21.29;56.69;100887.44;20642697;28;20691;-81
2022/11/30 16:44:58;;;;;;;11.88;7.63;;;;;;;21.27;57.52;100870.88;20619050;28;20042;-78
2022/11/30 16:54:59;;;;;;;17.40;8.38;;;;;;;21.31;57.91;100876.78;20614226;28;20053;-89
2022/11/30 17:04:59;;;;;;;20.17;9.77;;;;;;;21.33;58.32;100888.06;20649045;28;20059;-79
2022/11/30 17:15:01;;;;;;;19.50;9.23;;;;;;;21.32;58.27;100892.47;20647328;28;20116;-80
2022/11/30 17:25:01;;;;;;;14.95;8.45;;;;;;;21.26;58.59;100887.63;20636778;28;20606;-84
2022/11/30 17:35:03;;;;;;;18.45;8.30;;;;;;;21.31;57.49;100885.50;20643646;28;20394;-81
2022/11/30 17:45:04;;;;;;;13.57;7.28;;;;;;;21.27;57.93;100903.31;20629768;28;20041;-80
2022/11/30 17:55:05;;;;;;;22.60;10.48;;;;;;;21.35;58.12;100907.22;20661280;28;20073;-79
2022/11/30 18:05:06;;;;;;;26.15;11.95;;;;;;;21.41;58.30;100917.31;20654568;28;20052;-78
2022/11/30 18:15:08;;;;;;;42.85;23.52;;;;;;;21.47;60.90;100911.66;20640703;28;20047;-78
2022/11/30 18:25:08;;;;;;;58.40;30.10;;;;;;;21.50;60.66;100908.78;20630034;28;20038;-78
2022/11/30 18:35:09;;;;;;;46.85;28.42;;;;;;;21.50;60.30;100910.59;20602060;28;20065;-83
2022/11/30 18:45:09;;;;;;;63.60;27.73;;;;;;;21.49;59.51;100915.00;20613092;28;20042;-79
2022/11/30 18:55:09;;;;;;;40.25;26.23;;;;;;;21.49;60.31;100917.63;20619650;28;20520;-79
2022/11/30 19:05:10;;;;;;;41.92;25.08;;;;;;;21.47;60.50;100918.69;20637997;28;20171;-79
2022/11/30 19:15:10;;;;;;;37.47;23.55;;;;;;;21.46;59.99;100912.59;20665197;28;20183;-80
2022/11/30 19:25:11;;;;;;;34.08;22.48;;;;;;;21.41;59.35;100919.94;20654373;28;20155;-79
2022/11/30 19:35:11;;;;;;;42.75;22.42;;;;;;;21.40;59.57;100931.47;20652255;28;20045;-79
2022/11/30 19:45:12;;;;;;;35.63;21.30;;;;;;;21.35;56.10;100941.47;20632068;28;20137;-80
2022/11/30 19:55:12;;;;;;;33.55;20.40;;;;;;;21.24;57.39;100950.13;20649894;28;20140;-81
2022/11/30 20:05:12;;;;;;;26.33;17.55;;;;;;;21.19;57.49;100937.28;20649058;28;20136;-83
2022/11/30 20:15:14;;;;;;;28.73;17.08;;;;;;;21.19;57.38;100937.28;20646875;28;20058;-76
2022/11/30 20:25:14;;;;;;;23.45;16.33;;;;;;;21.16;57.32;100921.66;20656723;28;20393;-76
2022/11/30 20:35:15;;;;;;;24.27;14.98;;;;;;;21.11;57.67;100929.03;20654760;28;20057;-75
2022/11/30 20:45:18;;;;;;;21.42;13.80;;;;;;;21.04;57.71;100925.16;20665704;28;20038;-76
2022/11/30 20:55:19;;;;;;;21.80;13.18;;;;;;;21.02;57.55;100934.94;20663461;28;20154;-77
2022/11/30 21:05:19;;;;;;;22.60;13.38;;;;;;;20.98;57.74;100939.56;20650895;28;20520;-76
2022/11/30 21:15:20;;;;;;;21.58;12.32;;;;;;;20.95;57.66;100935.34;20656564;28;20061;-76
2022/11/30 21:25:20;;;;;;;18.83;11.70;;;;;;;20.92;58.16;100948.72;20656394;28;20116;-77
2022/11/30 21:35:20;;;;;;;18.88;11.70;;;;;;;20.92;57.77;100958.41;20652711;28;20045;-76
2022/11/30 21:45:21;;;;;;;16.90;10.60;;;;;;;20.92;57.75;100979.47;20649880;28;20510;-76
2022/11/30 21:55:22;;;;;;;16.25;10.40;;;;;;;20.87;57.89;100987.69;20603527;28;20049;-76
2022/11/30 22:05:23;;;;;;;16.85;10.23;;;;;;;20.85;58.10;100986.94;20653656;28;20046;-76
2022/11/30 22:15:23;;;;;;;19.27;9.38;;;;;;;20.82;58.22;100989.75;20650736;28;20426;-76
2022/11/30 22:25:23;;;;;;;15.35;9.27;;;;;;;20.80;58.14;100986.41;20657955;28;20397;-76
2022/11/30 22:35:24;;;;;;;12.40;8.60;;;;;;;20.79;57.90;100982.09;20672803;28;20096;-76
2022/11/30 22:45:24;;;;;;;13.48;8.68;;;;;;;20.76;57.91;100969.97;20661199;28;20030;-76
2022/11/30 22:55:25;;;;;;;14.75;8.93;;;;;;;20.73;58.19;100970.16;20653549;28;20053;-77
2022/11/30 23:05:26;;;;;;;14.05;7.90;;;;;;;20.72;57.59;100965.84;20646993;28;20073;-77
2022/11/30 23:15:26;;;;;;;13.93;8.23;;;;;;;20.72;57.96;100962.38;20647435;28;20513;-76
2022/11/30 23:25:28;;;;;;;11.23;7.13;;;;;;;20.70;57.62;100969.50;20650781;28;20108;-76
2022/11/30 23:35:28;;;;;;;10.75;6.65;;;;;;;20.66;57.87;100944.34;20652228;28;20057;-76
2022/11/30 23:45:29;;;;;;;11.13;7.15;;;;;;;20.64;57.77;100950.53;20648554;28;20034;-76
2022/11/30 23:55:29;;;;;;;8.75;6.25;;;;;;;20.62;57.70;100960.31;20673922;28;20422;-76
